createdAt,value
2017-09-17T00:00:07.749Z,0
2017-09-17T00:01:07.734Z,0
2017-09-17T00:02:07.709Z,0
2017-09-17T00:03:07.696Z,0
2017-09-17T00:04:07.667Z,0
2017-09-17T00:05:07.629Z,0
2017-09-17T00:06:07.608Z,0
2017-09-17T00:07:07.583Z,0
2017-09-17T00:08:07.570Z,0
2017-09-17T00:09:07.542Z,0
2017-09-17T00:10:07.218Z,0
2017-09-17T00:11:07.506Z,0
2017-09-17T00:12:07.167Z,0
2017-09-17T00:13:07.449Z,0
2017-09-17T00:14:07.426Z,0
2017-09-17T00:15:07.400Z,0
2017-09-17T00:16:07.380Z,0
2017-09-17T00:17:07.359Z,0
2017-09-17T00:18:07.338Z,0
2017-09-17T00:19:07.003Z,0
2017-09-17T00:20:07.287Z,0
2017-09-17T00:21:07.308Z,0
2017-09-17T00:22:07.245Z,0
2017-09-17T00:23:07.216Z,0
2017-09-17T00:24:07.193Z,0
2017-09-17T00:25:07.181Z,0
2017-09-17T00:26:06.840Z,0
2017-09-17T00:27:07.127Z,0
2017-09-17T00:28:07.110Z,0
2017-09-17T00:29:07.075Z,0
2017-09-17T00:30:07.055Z,0
2017-09-17T00:31:07.046Z,0
2017-09-17T00:32:07.066Z,0
2017-09-17T00:33:06.677Z,0
2017-09-17T00:34:06.962Z,0
2017-09-17T00:35:06.943Z,0
2017-09-17T00:36:06.925Z,0
2017-09-17T00:37:06.897Z,0
2017-09-17T00:38:06.263Z,0
2017-09-17T00:39:06.857Z,0
2017-09-17T00:40:06.821Z,0
2017-09-17T00:41:06.812Z,0
2017-09-17T00:42:06.772Z,0
2017-09-17T00:43:06.772Z,0
2017-09-17T00:44:06.431Z,0
2017-09-17T00:45:06.723Z,0
2017-09-17T00:46:06.689Z,0
2017-09-17T00:47:06.967Z,0
2017-09-17T00:48:06.641Z,0
2017-09-17T00:49:06.619Z,0
2017-09-17T00:50:07.216Z,0
2017-09-17T00:51:06.582Z,0
2017-09-17T00:52:06.543Z,0
2017-09-17T00:53:06.543Z,0
2017-09-17T00:54:06.506Z,0
2017-09-17T00:55:06.478Z,0
2017-09-17T00:56:06.451Z,0
2017-09-17T00:57:06.436Z,0
2017-09-17T00:58:06.403Z,0
2017-09-17T00:59:06.383Z,0
2017-09-17T01:00:06.352Z,0
2017-09-17T01:01:06.338Z,0
2017-09-17T01:02:06.317Z,0
2017-09-17T01:03:06.553Z,0
2017-09-17T01:04:06.271Z,0
2017-09-17T01:05:06.247Z,0
2017-09-17T01:06:06.226Z,0
2017-09-17T01:07:06.197Z,0
2017-09-17T01:08:06.225Z,0
2017-09-17T01:09:06.161Z,0
2017-09-17T01:10:06.182Z,0
2017-09-17T01:11:06.155Z,0
2017-09-17T01:12:06.080Z,0
2017-09-17T01:13:06.055Z,0
2017-09-17T01:14:06.042Z,0
2017-09-17T01:15:06.025Z,0
2017-09-17T01:16:05.679Z,0
2017-09-17T01:17:05.969Z,0
2017-09-17T01:18:05.945Z,0
2017-09-17T01:19:05.918Z,0
2017-09-17T01:20:05.904Z,0
2017-09-17T01:21:05.874Z,0
2017-09-17T01:22:05.858Z,0
2017-09-17T01:23:05.829Z,0
2017-09-17T01:24:05.819Z,0
2017-09-17T01:25:05.478Z,0
2017-09-17T01:26:05.761Z,0
2017-09-17T01:27:05.785Z,0
2017-09-17T01:28:05.713Z,0
2017-09-17T01:29:05.696Z,0
2017-09-17T01:30:05.664Z,0
2017-09-17T01:31:05.645Z,0
2017-09-17T01:32:05.618Z,0
2017-09-17T01:33:05.594Z,0
2017-09-17T01:34:05.575Z,0
2017-09-17T01:35:05.554Z,0
2017-09-17T01:36:05.524Z,0
2017-09-17T01:37:05.502Z,0
2017-09-17T01:38:05.534Z,0
2017-09-17T01:39:05.453Z,0
2017-09-17T01:40:05.484Z,0
2017-09-17T01:41:05.405Z,0
2017-09-17T01:42:05.379Z,0
2017-09-17T01:43:05.369Z,0
2017-09-17T01:44:05.337Z,0
2017-09-17T01:45:05.332Z,0
2017-09-17T01:46:04.988Z,0
2017-09-17T01:47:05.317Z,0
2017-09-17T01:48:05.246Z,0
2017-09-17T01:49:05.229Z,0
2017-09-17T01:50:05.199Z,0
2017-09-17T01:51:05.223Z,0
2017-09-17T01:52:05.154Z,0
2017-09-17T01:53:05.134Z,0
2017-09-17T01:54:05.109Z,0
2017-09-17T01:55:05.085Z,0
2017-09-17T01:56:05.056Z,0
2017-09-17T01:57:05.045Z,0
2017-09-17T01:58:04.712Z,0
2017-09-17T01:59:04.678Z,0
2017-09-17T02:00:04.964Z,0
2017-09-17T02:01:04.940Z,0
2017-09-17T02:02:04.921Z,0
2017-09-17T02:03:04.896Z,0
2017-09-17T02:04:04.561Z,0
2017-09-17T02:05:04.857Z,0
2017-09-17T02:06:04.826Z,0
2017-09-17T02:07:04.501Z,0
2017-09-17T02:08:04.769Z,0
2017-09-17T02:09:04.453Z,0
2017-09-17T02:10:04.757Z,0
2017-09-17T02:11:04.705Z,0
2017-09-17T02:12:04.683Z,0
2017-09-17T02:13:04.670Z,0
2017-09-17T02:14:04.635Z,0
2017-09-17T02:15:04.631Z,0
2017-09-17T02:16:04.602Z,0
2017-09-17T02:17:04.581Z,0
2017-09-17T02:18:04.544Z,0
2017-09-17T02:19:04.568Z,0
2017-09-17T02:20:04.502Z,0
2017-09-17T02:21:04.480Z,0
2017-09-17T02:22:04.451Z,0
2017-09-17T02:23:03.816Z,0
2017-09-17T02:24:04.408Z,0
2017-09-17T02:25:04.432Z,0
2017-09-17T02:26:04.353Z,0
2017-09-17T02:27:04.339Z,0
2017-09-17T02:28:04.310Z,0
2017-09-17T02:29:04.288Z,0
2017-09-17T02:30:04.269Z,0
2017-09-17T02:31:04.244Z,0
2017-09-17T02:32:04.216Z,0
2017-09-17T02:33:04.194Z,0
2017-09-17T02:34:04.187Z,0
2017-09-17T02:35:04.153Z,0
2017-09-17T02:36:04.122Z,0
2017-09-17T02:37:04.092Z,0
2017-09-17T02:38:04.079Z,0
2017-09-17T02:39:04.050Z,0
2017-09-17T02:40:04.031Z,0
2017-09-17T02:41:04.007Z,0
2017-09-17T02:42:03.988Z,0
2017-09-17T02:43:03.959Z,0
2017-09-17T02:44:03.932Z,0
2017-09-17T02:45:03.924Z,0
2017-09-17T02:46:03.884Z,0
2017-09-17T02:47:03.869Z,0
2017-09-17T02:48:03.841Z,0
2017-09-17T02:49:03.510Z,0
2017-09-17T02:50:03.486Z,0
2017-09-17T02:51:03.471Z,0
2017-09-17T02:52:03.754Z,0
2017-09-17T02:53:03.729Z,0
2017-09-17T02:54:03.388Z,0
2017-09-17T02:55:03.369Z,0
2017-09-17T02:56:03.349Z,0
2017-09-17T02:57:03.632Z,0
2017-09-17T02:58:03.607Z,0
2017-09-17T02:59:03.590Z,0
2017-09-17T03:00:03.618Z,0
2017-09-17T03:01:03.540Z,0
2017-09-17T03:02:03.563Z,0
2017-09-17T03:03:03.498Z,0
2017-09-17T03:04:03.467Z,0
2017-09-17T03:05:03.450Z,0
2017-09-17T03:06:03.429Z,0
2017-09-17T03:07:03.416Z,0
2017-09-17T03:08:03.377Z,0
2017-09-17T03:09:03.366Z,0
2017-09-17T03:10:03.333Z,0
2017-09-17T03:11:03.314Z,0
2017-09-17T03:12:03.268Z,0
2017-09-17T03:13:03.254Z,0
2017-09-17T03:14:03.232Z,0
2017-09-17T03:15:03.224Z,0
2017-09-17T03:16:03.182Z,0
2017-09-17T03:17:03.166Z,0
2017-09-17T03:18:03.199Z,0
2017-09-17T03:19:03.144Z,0
2017-09-17T03:20:03.088Z,0
2017-09-17T03:21:03.075Z,0
2017-09-17T03:22:03.049Z,0
2017-09-17T03:23:03.031Z,0
2017-09-17T03:24:03.009Z,0
2017-09-17T03:25:02.974Z,0
2017-09-17T03:26:02.953Z,0
2017-09-17T03:27:02.928Z,0
2017-09-17T03:28:02.598Z,0
2017-09-17T03:29:02.883Z,0
2017-09-17T03:30:02.864Z,0
2017-09-17T03:31:02.841Z,0
2017-09-17T03:32:02.811Z,0
2017-09-17T03:33:02.790Z,0
2017-09-17T03:34:02.456Z,0
2017-09-17T03:35:02.752Z,0
2017-09-17T03:36:02.418Z,0
2017-09-17T03:37:02.701Z,0
2017-09-17T03:38:02.675Z,0
2017-09-17T03:39:02.661Z,0
2017-09-17T03:40:02.630Z,0
2017-09-17T03:41:02.608Z,0
2017-09-17T03:42:02.581Z,0
2017-09-17T03:43:02.568Z,0
2017-09-17T03:44:02.531Z,0
2017-09-17T03:45:02.560Z,0
2017-09-17T03:46:02.486Z,0
2017-09-17T03:47:02.475Z,0
2017-09-17T03:48:02.432Z,0
2017-09-17T03:49:02.425Z,0
2017-09-17T03:50:02.402Z,0
2017-09-17T03:51:02.369Z,0
2017-09-17T03:52:02.345Z,0
2017-09-17T03:53:02.326Z,0
2017-09-17T03:54:02.301Z,0
2017-09-17T03:55:02.271Z,0
2017-09-17T03:56:02.254Z,0
2017-09-17T03:57:02.227Z,0
2017-09-17T03:58:02.206Z,0
2017-09-17T03:59:02.182Z,0
2017-09-17T04:00:02.172Z,0
2017-09-17T04:01:02.137Z,0
2017-09-17T04:02:02.115Z,0
2017-09-17T04:03:01.792Z,0
2017-09-17T04:04:02.098Z,0
2017-09-17T04:05:01.736Z,0
2017-09-17T04:06:02.015Z,0
2017-09-17T04:07:01.693Z,0
2017-09-17T04:08:01.969Z,0
2017-09-17T04:09:01.948Z,0
2017-09-17T04:10:01.621Z,0
2017-09-17T04:11:01.910Z,0
2017-09-17T04:12:01.888Z,0
2017-09-17T04:13:01.860Z,0
2017-09-17T04:14:01.837Z,0
2017-09-17T04:15:01.810Z,0
2017-09-17T04:16:01.792Z,0
2017-09-17T04:17:01.767Z,0
2017-09-17T04:18:01.753Z,0
2017-09-17T04:19:01.718Z,0
2017-09-17T04:20:01.699Z,0
2017-09-17T04:21:01.684Z,0
2017-09-17T04:22:01.643Z,0
2017-09-17T04:23:01.317Z,0
2017-09-17T04:24:01.602Z,0
2017-09-17T04:25:01.267Z,0
2017-09-17T04:26:01.602Z,0
2017-09-17T04:27:01.527Z,0
2017-09-17T04:28:01.504Z,0
2017-09-17T04:29:01.472Z,0
2017-09-17T04:30:01.459Z,0
2017-09-17T04:31:01.483Z,0
2017-09-17T04:32:01.108Z,0
2017-09-17T04:33:01.390Z,0
2017-09-17T04:34:01.369Z,0
2017-09-17T04:35:01.339Z,4
2017-09-17T04:36:01.312Z,4
2017-09-17T04:37:00.988Z,0
2017-09-17T04:38:01.260Z,4
2017-09-17T04:39:01.257Z,4
2017-09-17T04:40:01.227Z,4
2017-09-17T04:41:01.204Z,4
2017-09-17T04:42:01.184Z,4
2017-09-17T04:43:01.155Z,8
2017-09-17T04:44:00.842Z,8
2017-09-17T04:45:01.107Z,12
2017-09-17T04:46:01.078Z,12
2017-09-17T04:47:01.048Z,16
2017-09-17T04:48:00.424Z,16
2017-09-17T04:49:01.004Z,20
2017-09-17T04:50:00.684Z,24
2017-09-17T04:51:00.661Z,28
2017-09-17T04:52:00.940Z,36
2017-09-17T04:53:00.910Z,40
2017-09-17T04:54:00.920Z,44
2017-09-17T04:55:00.869Z,56
2017-09-17T04:56:00.844Z,60
2017-09-17T04:57:00.819Z,68
2017-09-17T04:58:00.799Z,84
2017-09-17T04:59:00.774Z,96
2017-09-17T05:00:00.233Z,104
2017-09-17T05:01:00.731Z,120
2017-09-17T05:02:00.698Z,136
2017-09-17T05:03:00.684Z,152
2017-09-17T05:04:00.661Z,168
2017-09-17T05:05:00.629Z,184
2017-09-17T05:06:00.601Z,200
2017-09-17T05:07:00.597Z,224
2017-09-17T05:08:00.570Z,244
2017-09-17T05:09:00.234Z,268
2017-09-17T05:10:00.522Z,292
2017-09-17T05:11:00.495Z,320
2017-09-17T05:12:00.472Z,352
2017-09-17T05:13:00.443Z,380
2017-09-17T05:14:00.416Z,412
2017-09-17T05:15:00.442Z,448
2017-09-17T05:16:00.379Z,480
2017-09-17T05:17:00.036Z,516
2017-09-17T05:18:00.006Z,556
2017-09-17T05:18:59.996Z,596
2017-09-17T05:20:00.329Z,632
2017-09-17T05:21:00.268Z,672
2017-09-17T05:21:59.934Z,712
2017-09-17T05:23:00.214Z,756
2017-09-17T05:24:00.188Z,804
2017-09-17T05:25:00.156Z,848
2017-09-17T05:26:00.143Z,900
2017-09-17T05:27:00.121Z,948
2017-09-17T05:28:00.086Z,1000
2017-09-17T05:29:00.061Z,1048
2017-09-17T05:29:59.726Z,1096
2017-09-17T05:31:00.024Z,1144
2017-09-17T05:31:59.995Z,1200
2017-09-17T05:32:59.662Z,1260
2017-09-17T05:33:59.945Z,1332
2017-09-17T05:34:59.922Z,1396
2017-09-17T05:35:59.906Z,1452
2017-09-17T05:36:59.570Z,1548
2017-09-17T05:37:59.851Z,1656
2017-09-17T05:38:59.826Z,1752
2017-09-17T05:39:59.803Z,1780
2017-09-17T05:40:59.795Z,1788
2017-09-17T05:41:59.752Z,1976
2017-09-17T05:42:59.740Z,2348
2017-09-17T05:43:59.707Z,2640
2017-09-17T05:44:59.684Z,2956
2017-09-17T05:45:59.668Z,3236
2017-09-17T05:46:59.637Z,3692
2017-09-17T05:47:59.328Z,3936
2017-09-17T05:48:59.335Z,3760
2017-09-17T05:49:59.566Z,3184
2017-09-17T05:50:59.541Z,3640
2017-09-17T05:51:59.252Z,4724
2017-09-17T05:52:59.504Z,4556
2017-09-17T05:53:59.484Z,5016
2017-09-17T05:54:59.499Z,4632
2017-09-17T05:55:59.424Z,4912
2017-09-17T05:56:59.407Z,5248
2017-09-17T05:57:59.376Z,5768
2017-09-17T05:58:59.047Z,5788
2017-09-17T05:59:59.334Z,5648
2017-09-17T06:00:59.318Z,5320
2017-09-17T06:01:58.991Z,5372
2017-09-17T06:02:59.326Z,4876
2017-09-17T06:03:59.248Z,5720
2017-09-17T06:04:59.229Z,6060
2017-09-17T06:05:59.212Z,5940
2017-09-17T06:06:59.185Z,6596
2017-09-17T06:07:59.168Z,7584
2017-09-17T06:08:59.135Z,7728
2017-09-17T06:09:59.111Z,7852
2017-09-17T06:10:59.086Z,8028
2017-09-17T06:11:59.119Z,8192
2017-09-17T06:12:58.746Z,8304
2017-09-17T06:13:58.714Z,8444
2017-09-17T06:14:59.009Z,8560
2017-09-17T06:15:58.673Z,8632
2017-09-17T06:16:58.956Z,8760
2017-09-17T06:17:59.036Z,8880
2017-09-17T06:18:58.963Z,8992
2017-09-17T06:19:58.893Z,9116
2017-09-17T06:20:58.887Z,9208
2017-09-17T06:21:58.544Z,9364
2017-09-17T06:22:58.829Z,9452
2017-09-17T06:23:58.815Z,9568
2017-09-17T06:24:58.813Z,9724
2017-09-17T06:25:58.770Z,9828
2017-09-17T06:26:58.750Z,9984
2017-09-17T06:27:58.732Z,10144
2017-09-17T06:28:58.762Z,10232
2017-09-17T06:29:58.701Z,10428
2017-09-17T06:30:58.677Z,10508
2017-09-17T06:31:58.661Z,10640
2017-09-17T06:32:58.630Z,10780
2017-09-17T06:33:58.614Z,10932
2017-09-17T06:34:58.281Z,11052
2017-09-17T06:35:58.572Z,11112
2017-09-17T06:36:58.544Z,11216
2017-09-17T06:37:58.541Z,11416
2017-09-17T06:38:58.509Z,11444
2017-09-17T06:39:58.551Z,11500
2017-09-17T06:40:58.477Z,11676
2017-09-17T06:41:58.471Z,11876
2017-09-17T06:42:58.441Z,11980
2017-09-17T06:43:58.432Z,12048
2017-09-17T06:44:58.133Z,12148
2017-09-17T06:45:58.375Z,12380
2017-09-17T06:46:58.358Z,12652
2017-09-17T06:47:58.026Z,12844
2017-09-17T06:48:58.318Z,12868
2017-09-17T06:49:58.002Z,13072
2017-09-17T06:50:58.341Z,13228
2017-09-17T06:51:58.267Z,13256
2017-09-17T06:52:58.252Z,13416
2017-09-17T06:53:58.237Z,13564
2017-09-17T06:54:57.916Z,13716
2017-09-17T06:55:58.194Z,13912
2017-09-17T06:56:58.177Z,13984
2017-09-17T06:57:58.181Z,14272
2017-09-17T06:58:58.143Z,14400
2017-09-17T06:59:58.123Z,14592
2017-09-17T07:00:57.800Z,14848
2017-09-17T07:01:58.098Z,14912
2017-09-17T07:02:58.115Z,14976
2017-09-17T07:03:58.061Z,15136
2017-09-17T07:04:57.745Z,15296
2017-09-17T07:05:58.029Z,15616
2017-09-17T07:06:57.992Z,15840
2017-09-17T07:07:57.983Z,15936
2017-09-17T07:08:57.967Z,16064
2017-09-17T07:09:57.952Z,15936
2017-09-17T07:10:57.937Z,16096
2017-09-17T07:11:57.914Z,16352
2017-09-17T07:12:57.899Z,16928
2017-09-17T07:13:57.884Z,17216
2017-09-17T07:14:57.858Z,17024
2017-09-17T07:15:57.543Z,17440
2017-09-17T07:16:57.872Z,18752
2017-09-17T07:17:57.810Z,20224
2017-09-17T07:18:57.797Z,21344
2017-09-17T07:19:57.782Z,21280
2017-09-17T07:20:57.769Z,21312
2017-09-17T07:21:57.752Z,21504
2017-09-17T07:22:57.739Z,21696
2017-09-17T07:23:57.723Z,21472
2017-09-17T07:24:57.702Z,16224
2017-09-17T07:25:57.691Z,15552
2017-09-17T07:26:57.674Z,12560
2017-09-17T07:27:57.652Z,10824
2017-09-17T07:28:57.644Z,9136
2017-09-17T07:29:57.326Z,9184
2017-09-17T07:30:57.601Z,8800
2017-09-17T07:31:57.585Z,10872
2017-09-17T07:32:57.571Z,13756
2017-09-17T07:33:57.571Z,13544
2017-09-17T07:34:57.543Z,12932
2017-09-17T07:35:57.218Z,15520
2017-09-17T07:36:57.501Z,12404
2017-09-17T07:37:57.496Z,17248
2017-09-17T07:38:57.520Z,11996
2017-09-17T07:39:57.198Z,8816
2017-09-17T07:40:57.434Z,8832
2017-09-17T07:41:57.421Z,9024
2017-09-17T07:42:57.402Z,8916
2017-09-17T07:43:57.379Z,8836
2017-09-17T07:44:57.360Z,8764
2017-09-17T07:45:57.352Z,8580
2017-09-17T07:46:57.328Z,9076
2017-09-17T07:47:57.354Z,10716
2017-09-17T07:48:57.289Z,10648
2017-09-17T07:49:57.271Z,10216
2017-09-17T07:50:57.257Z,9528
2017-09-17T07:51:57.246Z,9352
2017-09-17T07:52:57.219Z,9444
2017-09-17T07:53:57.192Z,9780
2017-09-17T07:54:57.184Z,9424
2017-09-17T07:55:57.172Z,9220
2017-09-17T07:56:57.142Z,9032
2017-09-17T07:57:57.130Z,8892
2017-09-17T07:58:57.155Z,9104
2017-09-17T07:59:56.770Z,9652
2017-09-17T08:00:57.058Z,9760
2017-09-17T08:01:57.053Z,10168
2017-09-17T08:02:56.710Z,11840
2017-09-17T08:03:57.034Z,14636
2017-09-17T08:04:56.669Z,15008
2017-09-17T08:05:56.958Z,17856
2017-09-17T08:06:56.940Z,26656
2017-09-17T08:07:56.920Z,31008
2017-09-17T08:08:56.900Z,32320
2017-09-17T08:09:56.876Z,34144
2017-09-17T08:10:56.858Z,34368
2017-09-17T08:11:56.845Z,35232
2017-09-17T08:12:56.826Z,35008
2017-09-17T08:13:56.811Z,20320
2017-09-17T08:14:56.169Z,32384
2017-09-17T08:15:56.820Z,34400
2017-09-17T08:16:56.748Z,36448
2017-09-17T08:17:56.731Z,39040
2017-09-17T08:18:56.720Z,41312
2017-09-17T08:19:56.703Z,41664
2017-09-17T08:20:56.678Z,41760
2017-09-17T08:21:56.666Z,41696
2017-09-17T08:22:56.649Z,40384
2017-09-17T08:23:56.638Z,39456
2017-09-17T08:24:56.613Z,39456
2017-09-17T08:25:56.597Z,38784
2017-09-17T08:26:56.646Z,39264
2017-09-17T08:27:56.579Z,40800
2017-09-17T08:28:56.562Z,43936
2017-09-17T08:29:56.243Z,46624
2017-09-17T08:30:56.540Z,46016
2017-09-17T08:31:56.516Z,45344
2017-09-17T08:32:56.206Z,44128
2017-09-17T08:33:56.488Z,45664
2017-09-17T08:34:56.497Z,47968
2017-09-17T08:35:56.160Z,48832
2017-09-17T08:36:56.462Z,47392
2017-09-17T08:37:56.135Z,42752
2017-09-17T08:38:56.200Z,37184
2017-09-17T08:39:56.111Z,36448
2017-09-17T08:40:56.099Z,34592
2017-09-17T08:41:56.080Z,35232
2017-09-17T08:42:56.379Z,33120
2017-09-17T08:43:56.370Z,36832
2017-09-17T08:44:56.351Z,12896
2017-09-17T08:45:56.350Z,10572
2017-09-17T08:46:56.330Z,10676
2017-09-17T08:47:55.701Z,28160
2017-09-17T08:48:56.300Z,11764
2017-09-17T08:49:56.304Z,29920
2017-09-17T08:50:56.275Z,36672
2017-09-17T08:51:56.258Z,37568
2017-09-17T08:52:56.259Z,40416
2017-09-17T08:53:56.247Z,46176
2017-09-17T08:54:56.220Z,52256
2017-09-17T08:55:56.214Z,52288
2017-09-17T08:56:56.194Z,51168
2017-09-17T08:57:56.194Z,49664
2017-09-17T08:58:56.165Z,42336
2017-09-17T08:59:56.157Z,26784
2017-09-17T09:00:56.144Z,23072
2017-09-17T09:01:56.157Z,23520
2017-09-17T09:02:56.130Z,26368
2017-09-17T09:03:56.159Z,29600
2017-09-17T09:04:56.086Z,42080
2017-09-17T09:05:55.464Z,44096
2017-09-17T09:06:56.072Z,40896
2017-09-17T09:07:56.055Z,47392
2017-09-17T09:08:56.044Z,38752
2017-09-17T09:09:56.018Z,21856
2017-09-17T09:10:55.700Z,29344
2017-09-17T09:11:56.000Z,26432
2017-09-17T09:12:55.983Z,20448
2017-09-17T09:13:55.661Z,21024
2017-09-17T09:14:55.955Z,25536
2017-09-17T09:15:55.993Z,24928
2017-09-17T09:16:55.927Z,18880
2017-09-17T09:17:55.905Z,19360
2017-09-17T09:18:55.906Z,49568
2017-09-17T09:19:55.886Z,56320
2017-09-17T09:20:55.564Z,54560
2017-09-17T09:21:55.857Z,23776
2017-09-17T09:22:55.839Z,40768
2017-09-17T09:23:55.823Z,25984
2017-09-17T09:24:55.816Z,22272
2017-09-17T09:25:55.808Z,19744
2017-09-17T09:26:55.788Z,18752
2017-09-17T09:27:55.471Z,18784
2017-09-17T09:28:55.757Z,20000
2017-09-17T09:29:55.743Z,25056
2017-09-17T09:30:55.729Z,64192
2017-09-17T09:31:55.704Z,58016
2017-09-17T09:32:55.688Z,49984
2017-09-17T09:33:55.681Z,64032
2017-09-17T09:34:55.670Z,62560
2017-09-17T09:35:55.646Z,59136
2017-09-17T09:36:55.639Z,39168
2017-09-17T09:37:55.607Z,47904
2017-09-17T09:38:55.655Z,44480
2017-09-17T09:39:55.593Z,45920
2017-09-17T09:40:55.579Z,50592
2017-09-17T09:41:55.559Z,54240
2017-09-17T09:42:55.565Z,43872
2017-09-17T09:43:55.545Z,52576
2017-09-17T09:44:55.516Z,50240
2017-09-17T09:45:55.509Z,48384
2017-09-17T09:46:55.498Z,49376
2017-09-17T09:47:55.484Z,51456
2017-09-17T09:48:55.165Z,51712
2017-09-17T09:49:55.466Z,50944
2017-09-17T09:50:55.501Z,48832
2017-09-17T09:51:55.449Z,46752
2017-09-17T09:52:55.442Z,46432
2017-09-17T09:53:55.433Z,11692
2017-09-17T09:54:55.102Z,11808
2017-09-17T09:55:55.381Z,45632
2017-09-17T09:56:55.076Z,8208
2017-09-17T09:57:55.058Z,47648
2017-09-17T09:58:55.356Z,27072
2017-09-17T09:59:55.345Z,48032
2017-09-17T10:00:55.333Z,35616
2017-09-17T10:01:55.324Z,16480
2017-09-17T10:02:55.301Z,11160
2017-09-17T10:03:55.299Z,11216
2017-09-17T10:04:55.275Z,11760
2017-09-17T10:05:55.270Z,10944
2017-09-17T10:06:55.256Z,10204
2017-09-17T10:07:55.243Z,10752
2017-09-17T10:08:55.225Z,10748
2017-09-17T10:09:55.212Z,10432
2017-09-17T10:10:55.206Z,10512
2017-09-17T10:11:55.193Z,10308
2017-09-17T10:12:55.186Z,9740
2017-09-17T10:13:55.146Z,9700
2017-09-17T10:14:55.138Z,10352
2017-09-17T10:15:54.818Z,10304
2017-09-17T10:16:55.106Z,9764
2017-09-17T10:17:55.086Z,9308
2017-09-17T10:18:55.067Z,8740
2017-09-17T10:19:55.052Z,8208
2017-09-17T10:20:55.037Z,8564
2017-09-17T10:21:54.709Z,10280
2017-09-17T10:22:54.999Z,9652
2017-09-17T10:23:54.978Z,8952
2017-09-17T10:24:54.967Z,8308
2017-09-17T10:25:54.978Z,8496
2017-09-17T10:26:54.613Z,8796
2017-09-17T10:27:54.905Z,8844
2017-09-17T10:28:54.889Z,8924
2017-09-17T10:29:54.893Z,10640
2017-09-17T10:30:54.588Z,11464
2017-09-17T10:31:54.835Z,10264
2017-09-17T10:32:54.814Z,10528
2017-09-17T10:33:54.788Z,11764
2017-09-17T10:34:54.777Z,12248
2017-09-17T10:35:54.758Z,13316
2017-09-17T10:36:54.733Z,14432
2017-09-17T10:37:54.415Z,14060
2017-09-17T10:38:54.700Z,13176
2017-09-17T10:39:54.709Z,11508
2017-09-17T10:40:54.669Z,10832
2017-09-17T10:41:54.638Z,11920
2017-09-17T10:42:54.638Z,11896
2017-09-17T10:43:54.606Z,10876
2017-09-17T10:44:54.275Z,10236
2017-09-17T10:45:54.567Z,11204
2017-09-17T10:46:54.236Z,11740
2017-09-17T10:47:54.533Z,12456
2017-09-17T10:48:54.506Z,13192
2017-09-17T10:49:54.487Z,13324
2017-09-17T10:50:54.162Z,14232
2017-09-17T10:51:54.451Z,14560
2017-09-17T10:52:54.437Z,14212
2017-09-17T10:53:54.420Z,14108
2017-09-17T10:54:54.502Z,14532
2017-09-17T10:55:54.376Z,14736
2017-09-17T10:56:54.056Z,15388
2017-09-17T10:57:54.348Z,16152
2017-09-17T10:58:54.366Z,16580
2017-09-17T10:59:54.343Z,17568
2017-09-17T11:00:53.970Z,17152
2017-09-17T11:01:54.261Z,17248
2017-09-17T11:02:54.237Z,16744
2017-09-17T11:03:54.668Z,15720
2017-09-17T11:04:54.214Z,15088
2017-09-17T11:05:54.191Z,15040
2017-09-17T11:06:53.858Z,13020
2017-09-17T11:07:54.149Z,11480
2017-09-17T11:08:54.116Z,10240
2017-09-17T11:09:54.115Z,10176
2017-09-17T11:10:54.097Z,10092
2017-09-17T11:11:54.122Z,11036
2017-09-17T11:12:54.055Z,11424
2017-09-17T11:13:54.044Z,12404
2017-09-17T11:14:54.036Z,13492
2017-09-17T11:15:53.699Z,13544
2017-09-17T11:16:53.680Z,12688
2017-09-17T11:17:53.649Z,11800
2017-09-17T11:18:53.949Z,11152
2017-09-17T11:19:53.924Z,11580
2017-09-17T11:20:53.591Z,13284
2017-09-17T11:21:53.880Z,15868
2017-09-17T11:22:53.877Z,16300
2017-09-17T11:23:53.848Z,16172
2017-09-17T11:24:53.822Z,16348
2017-09-17T11:25:53.815Z,15660
2017-09-17T11:26:53.836Z,14628
2017-09-17T11:27:53.783Z,12948
2017-09-17T11:28:53.454Z,11780
2017-09-17T11:29:53.424Z,11460
2017-09-17T11:30:53.717Z,11312
2017-09-17T11:31:53.698Z,11540
2017-09-17T11:32:53.664Z,12404
2017-09-17T11:33:53.657Z,13276
2017-09-17T11:34:53.638Z,13628
2017-09-17T11:35:53.646Z,12652
2017-09-17T11:36:53.615Z,11708
2017-09-17T11:37:53.586Z,10900
2017-09-17T11:38:53.277Z,10368
2017-09-17T11:39:53.547Z,9588
2017-09-17T11:40:53.551Z,8624
2017-09-17T11:41:53.561Z,8252
2017-09-17T11:42:53.492Z,7824
2017-09-17T11:43:53.489Z,7584
2017-09-17T11:44:53.441Z,7276
2017-09-17T11:45:53.144Z,7152
2017-09-17T11:46:53.403Z,7204
2017-09-17T11:47:53.383Z,7156
2017-09-17T11:48:53.369Z,7016
2017-09-17T11:49:53.351Z,7232
2017-09-17T11:50:53.338Z,7388
2017-09-17T11:51:53.001Z,7868
2017-09-17T11:52:53.294Z,8888
2017-09-17T11:53:53.277Z,10060
2017-09-17T11:54:53.255Z,11084
2017-09-17T11:55:52.930Z,11564
2017-09-17T11:56:53.214Z,11040
2017-09-17T11:57:52.893Z,10476
2017-09-17T11:58:53.387Z,10160
2017-09-17T11:59:53.164Z,9812
2017-09-17T12:00:53.141Z,9232
2017-09-17T12:01:53.113Z,8564
2017-09-17T12:02:53.100Z,7840
2017-09-17T12:03:53.083Z,7336
2017-09-17T12:04:53.054Z,7032
2017-09-17T12:05:53.038Z,6880
2017-09-17T12:06:53.022Z,7144
2017-09-17T12:07:53.000Z,7620
2017-09-17T12:08:52.096Z,8272
2017-09-17T12:09:52.073Z,9056
2017-09-17T12:10:52.955Z,10024
2017-09-17T12:11:52.922Z,10288
2017-09-17T12:12:52.904Z,10872
2017-09-17T12:13:52.588Z,11588
2017-09-17T12:14:52.553Z,11688
2017-09-17T12:15:52.845Z,12104
2017-09-17T12:16:52.829Z,12704
2017-09-17T12:17:52.189Z,11856
2017-09-17T12:18:52.796Z,11356
2017-09-17T12:19:52.765Z,11012
2017-09-17T12:20:52.741Z,11036
2017-09-17T12:21:52.720Z,11672
2017-09-17T12:22:52.712Z,11292
2017-09-17T12:23:52.701Z,10448
2017-09-17T12:24:52.675Z,9524
2017-09-17T12:25:52.649Z,9156
2017-09-17T12:26:52.314Z,9184
2017-09-17T12:27:52.608Z,9412
2017-09-17T12:28:52.587Z,9352
2017-09-17T12:29:52.582Z,9252
2017-09-17T12:30:52.551Z,8708
2017-09-17T12:31:52.527Z,8452
2017-09-17T12:32:52.201Z,8084
2017-09-17T12:33:52.487Z,8056
2017-09-17T12:34:51.866Z,8412
2017-09-17T12:35:52.454Z,8728
2017-09-17T12:36:52.448Z,8784
2017-09-17T12:37:52.626Z,8736
2017-09-17T12:38:52.387Z,8468
2017-09-17T12:39:52.416Z,8060
2017-09-17T12:40:52.410Z,7528
2017-09-17T12:41:52.333Z,7184
2017-09-17T12:42:52.005Z,7004
2017-09-17T12:43:52.289Z,6772
2017-09-17T12:44:52.281Z,6708
2017-09-17T12:45:52.263Z,6960
2017-09-17T12:46:52.231Z,7424
2017-09-17T12:47:52.218Z,7672
2017-09-17T12:48:52.184Z,7464
2017-09-17T12:49:52.176Z,6708
2017-09-17T12:50:52.150Z,6096
2017-09-17T12:51:52.204Z,5852
2017-09-17T12:52:52.117Z,6036
2017-09-17T12:53:52.088Z,6244
2017-09-17T12:54:52.077Z,6440
2017-09-17T12:55:52.057Z,6384
2017-09-17T12:56:52.043Z,6312
2017-09-17T12:57:52.017Z,6256
2017-09-17T12:58:51.998Z,6272
2017-09-17T12:59:51.667Z,6412
2017-09-17T13:00:51.951Z,6604
2017-09-17T13:01:51.932Z,6808
2017-09-17T13:02:51.917Z,6944
2017-09-17T13:03:51.893Z,7000
2017-09-17T13:04:51.560Z,7028
2017-09-17T13:05:51.541Z,7024
2017-09-17T13:06:51.836Z,7008
2017-09-17T13:07:51.808Z,7036
2017-09-17T13:08:51.810Z,7032
2017-09-17T13:09:51.777Z,7028
2017-09-17T13:10:51.749Z,7076
2017-09-17T13:11:51.737Z,7140
2017-09-17T13:12:51.771Z,7144
2017-09-17T13:13:51.750Z,7112
2017-09-17T13:14:51.687Z,7316
2017-09-17T13:15:51.663Z,7600
2017-09-17T13:16:51.634Z,8024
2017-09-17T13:17:51.668Z,8344
2017-09-17T13:18:51.601Z,8748
2017-09-17T13:19:51.576Z,9252
2017-09-17T13:20:51.551Z,9052
2017-09-17T13:21:51.530Z,8892
2017-09-17T13:22:51.204Z,8880
2017-09-17T13:23:51.491Z,8232
2017-09-17T13:24:51.215Z,7580
2017-09-17T13:25:51.148Z,6664
2017-09-17T13:26:51.124Z,5916
2017-09-17T13:27:51.419Z,5480
2017-09-17T13:28:51.396Z,5264
2017-09-17T13:29:51.065Z,5180
2017-09-17T13:30:51.357Z,5184
2017-09-17T13:31:51.338Z,5216
2017-09-17T13:32:51.061Z,5328
2017-09-17T13:33:51.277Z,5508
2017-09-17T13:34:51.037Z,5584
2017-09-17T13:35:51.255Z,5584
2017-09-17T13:36:51.229Z,5596
2017-09-17T13:37:51.265Z,5752
2017-09-17T13:38:51.201Z,6012